Latest Weather Observations for Warwick

IDQ60901

Issued at 1:41 pm EST Wednesday 28 June 2017 (issued every 10 minutes, with the page automatically refreshed every 10 minutes)

About weather observations | Map of Brisbane area stations | Latest observations for Brisbane area | Other Formats
Station Details ID: 041525 Name: WARWICK Lat: -28.21 Lon: 152.10 Height: 475.4 m
Data from the previous 72 hours. | See also: Recent months at Warwick
Date/Time
EST
Temp
°C
App
Temp
°C
Dew
Point
°C
Rel
Hum
%
Delta-T
°C
Wind Press
QNH
hPa
Press
MSL
hPa
Rain since
9am
mm
Dir  Spd
km/h
Gust
km/h
Spd
kts
Gust
kts
28/01:30pm 19.3 18.7 12.3 64 4.0 W 7 13 4 7 1022.4 1022.2 0.0
28/01:00pm 19.9 19.2 11.3 57 4.8 NW 6 11 3 6 1022.7 1022.6 0.0
28/12:30pm 20.0 18.3 11.2 57 4.9 NNW 11 19 6 10 1023.1 1023.0 0.0
28/12:00pm 20.1 18.9 11.6 58 4.8 NNW 9 17 5 9 1023.5 1023.4 0.0
28/11:30am 18.6 16.5 11.2 62 4.1 NNW 13 19 7 10 1024.3 1024.1 0.0
28/11:00am 18.0 16.4 11.7 66 3.5 NW 11 22 6 12 1024.7 1024.6 0.0
28/10:30am 15.3 15.7 12.4 83 1.6 SSW 2 9 1 5 1025.0 1024.9 0.0
28/10:00am 13.4 14.1 12.1 92 0.7 CALM 0 0 0 0 1025.1 1025.0 0.0
28/09:30am 11.7 12.2 11.5 99 0.1 CALM 0 0 0 0 1025.6 1025.5 0.0
28/09:00am 10.7 10.8 10.3 97 0.2 CALM 0 0 0 0 1025.4 1025.3 0.0
28/08:30am 9.8 9.7 9.6 99 0.1 CALM 0 0 0 0 1025.4 1025.3 0.0
28/08:00am 9.8 9.7 9.6 99 0.1 CALM 0 0 0 0 1024.9 1024.8 0.0
28/07:30am 8.7 8.4 8.7 100 0.0 CALM 0 0 0 0 1024.7 1024.6 0.0
28/07:00am 8.1 7.7 8.1 100 0.0 CALM 0 6 0 3 1024.7 1024.6 0.0
28/06:30am 8.2 7.7 8.0 99 0.1 CALM 0 0 0 0 1024.4 1024.2 0.0
28/06:00am 7.5 6.9 7.5 100 0.0 CALM 0 0 0 0 1024.3 1024.1 0.0
28/05:30am 7.5 6.9 7.5 100 0.0 CALM 0 0 0 0 1023.8 1023.7 0.0
28/05:00am 8.0 7.5 8.0 100 0.0 CALM 0 0 0 0 1023.5 1023.4 0.0
28/04:30am 8.3 7.9 8.3 100 0.0 CALM 0 0 0 0 1023.3 1023.2 0.0
28/04:00am 8.0 7.5 8.0 100 0.0 CALM 0 0 0 0 1023.6 1023.5 0.0
28/03:30am 8.5 8.2 8.5 100 0.0 CALM 0 0 0 0 1023.7 1023.6 0.0
28/03:00am 9.8 9.8 9.8 100 0.0 CALM 0 0 0 0 1024.2 1024.0 0.0
28/02:30am 9.0 8.7 8.8 99 0.1 CALM 0 0 0 0 1024.4 1024.2 0.0
28/02:00am 8.9 8.7 8.9 100 0.0 CALM 0 0 0 0 1024.1 1023.9 0.0
28/01:30am 8.3 7.9 8.3 100 0.0 CALM 0 0 0 0 1024.0 1023.8 0.0
28/01:00am 8.1 7.7 8.1 100 0.0 CALM 0 0 0 0 1023.8 1023.7 0.0
28/12:30am 8.7 8.4 8.7 100 0.0 CALM 0 0 0 0 1024.1 1023.9 0.0
28/12:00am 10.2 10.3 10.2 100 0.0 CALM 0 0 0 0 1024.1 1023.9 0.0
 
Date/Time
EST
Temp
°C
App
Temp
°C
Dew
Point
°C
Rel
Hum
%
Delta-T
°C
Wind Press
QNH
hPa
Press
MSL
hPa
Rain since
9am
mm
Dir  Spd
km/h
Gust
km/h
Spd
kts
Gust
kts
27/11:30pm 11.3 11.5 10.7 96 0.3 CALM 0 0 0 0 1024.4 1024.2 0.0
27/11:00pm 10.7 10.8 10.3 97 0.2 CALM 0 0 0 0 1024.6 1024.5 0.0
27/10:30pm 9.9 9.9 9.9 100 0.0 CALM 0 0 0 0 1024.7 1024.6 0.0
27/10:00pm 10.1 10.1 9.9 99 0.1 CALM 0 0 0 0 1024.8 1024.7 0.0
27/09:30pm 10.6 10.7 10.2 97 0.2 CALM 0 0 0 0 1024.8 1024.7 0.0
27/09:00pm 11.2 11.4 10.6 96 0.3 CALM 0 0 0 0 1024.7 1024.6 0.0
27/08:30pm 12.4 12.9 11.5 94 0.5 CALM 0 0 0 0 1024.4 1024.2 0.0
27/08:00pm 12.6 13.0 11.3 92 0.7 CALM 0 0 0 0 1024.3 1024.1 0.0
27/07:30pm 13.3 13.7 11.3 88 1.1 CALM 0 0 0 0 1024.3 1024.1 0.0
27/07:00pm 12.8 13.0 10.7 87 1.1 CALM 0 0 0 0 1024.3 1024.1 0.0
27/06:30pm 13.0 13.3 10.9 87 1.1 CALM 0 0 0 0 1024.0 1023.8 0.0
27/06:00pm 13.9 13.8 10.7 81 1.7 NE 2 6 1 3 1023.6 1023.5 0.0
27/05:30pm 14.8 14.8 11.1 78 2.0 NE 2 7 1 4 1023.2 1023.1 0.0
27/05:00pm 16.3 15.0 11.2 72 2.8 E 9 13 5 7 1023.2 1023.1 0.0
27/04:30pm 17.1 15.0 11.3 68 3.2 NE 13 17 7 9 1023.2 1023.1 0.0
27/04:00pm 17.3 16.6 12.1 71 2.9 SE 7 13 4 7 1022.9 1022.8 0.0
27/03:30pm 17.3 15.9 12.1 71 2.9 SE 11 19 6 10 1022.9 1022.8 0.0
27/03:00pm 17.8 16.3 11.9 68 3.3 SE 11 17 6 9 1022.8 1022.7 0.0
27/02:30pm 18.6 17.4 11.6 63 3.9 ESE 9 17 5 9 1022.9 1022.8 0.0
27/02:00pm 18.7 18.0 11.3 62 4.1 E 6 11 3 6 1023.1 1023.0 0.0
27/01:30pm 20.0 19.2 11.0 56 5.0 NNE 6 15 3 8 1023.1 1023.0 0.0
27/01:00pm 18.6 17.8 11.0 61 4.2 ESE 6 13 3 7 1023.5 1023.4 0.0
27/12:30pm 18.6 17.7 11.2 62 4.1 SE 7 17 4 9 1024.0 1023.8 0.0
27/12:00pm 17.9 16.9 11.0 64 3.8 SE 7 11 4 6 1024.4 1024.2 0.0
27/11:30am 17.4 17.0 11.0 66 3.5 ESE 4 9 2 5 1024.9 1024.8 0.0
27/11:00am 17.2 16.1 10.6 65 3.6 SE 7 13 4 7 1025.4 1025.3 0.0
27/10:30am 16.1 16.5 11.2 72 2.7 CALM 0 0 0 0 1025.8 1025.7 0.0
27/10:00am 14.0 14.2 10.6 80 1.8 CALM 0 0 0 0 1025.7 1025.6 0.0
27/09:30am 13.5 13.7 10.5 82 1.6 CALM 0 6 0 3 1025.9 1025.8 0.0
27/09:00am 11.2 11.1 9.4 89 0.9 CALM 0 0 0 0 1025.7 1025.6 0.0
27/08:30am 10.7 10.1 9.1 90 0.8 NE 2 9 1 5 1025.4 1025.3 0.0
27/08:00am 9.4 8.2 8.0 91 0.7 NE 4 9 2 5 1025.2 1025.1 0.0
27/07:30am 7.7 6.2 6.9 95 0.4 NE 4 7 2 4 1024.9 1024.8 0.0
27/07:00am 5.0 2.7 5.0 100 0.0 NE 6 11 3 6 1024.8 1024.7 0.0
27/06:30am 4.5 3.3 4.5 100 0.0 CALM 0 0 0 0 1024.9 1024.8 0.0
27/06:00am 5.3 4.2 5.3 100 0.0 CALM 0 0 0 0 1024.7 1024.6 0.0
27/05:30am 7.9 7.4 7.7 99 0.1 CALM 0 0 0 0 1024.6 1024.5 0.0
27/05:00am 8.5 7.9 7.3 92 0.6 CALM 0 0 0 0 1024.1 1023.9 0.0
27/04:30am 5.9 3.8 5.7 99 0.1 NNE 6 9 3 5 1024.0 1023.8 0.0
27/04:00am 5.4 4.0 5.4 100 0.0 NE 2 7 1 4 1023.7 1023.6 0.0
27/03:30am 8.3 7.3 7.5 95 0.4 NE 2 7 1 4 1023.7 1023.6 0.0
27/03:00am 8.3 7.3 7.3 93 0.5 NE 2 7 1 4 1023.7 1023.6 0.0
27/02:30am 8.2 6.3 7.6 96 0.3 NNE 7 13 4 7 1023.7 1023.6 0.0
27/02:00am 9.3 8.8 7.9 91 0.7 CALM 0 0 0 0 1023.8 1023.7 0.0
27/01:30am 9.3 8.0 7.7 90 0.8 NE 4 9 2 5 1024.1 1023.9 0.0
27/01:00am 8.9 7.9 7.5 91 0.7 NNE 2 7 1 4 1024.1 1023.9 0.0
27/12:30am 9.1 8.0 7.0 87 1.0 NE 2 7 1 4 1024.1 1023.9 0.0
27/12:00am 9.9 9.2 6.8 81 1.5 CALM 0 6 0 3 1024.1 1023.9 0.0
 
Date/Time
EST
Temp
°C
App
Temp
°C
Dew
Point
°C
Rel
Hum
%
Delta-T
°C
Wind Press
QNH
hPa
Press
MSL
hPa
Rain since
9am
mm
Dir  Spd
km/h
Gust
km/h
Spd
kts
Gust
kts
26/11:30pm 9.9 7.9 6.1 77 1.8 NE 6 7 3 4 1024.0 1023.8 0.0
26/11:00pm 9.9 7.7 5.4 73 2.1 NE 6 9 3 5 1024.1 1023.9 0.0
26/10:30pm 8.8 6.2 4.1 72 2.1 NE 7 9 4 5 1024.1 1023.9 0.0
26/10:00pm 8.1 5.6 4.5 78 1.6 ENE 7 9 4 5 1024.0 1023.8 0.0
26/09:30pm 9.0 6.5 4.6 74 2.0 NE 7 9 4 5 1023.7 1023.6 0.0
26/09:00pm 9.3 6.8 4.7 73 2.1 NNE 7 11 4 6 1023.5 1023.4 0.0
26/08:30pm 9.5 8.3 4.7 72 2.2 CALM 0 0 0 0 1023.2 1023.1 0.0
26/08:00pm 9.8 7.1 5.5 74 2.0 E 9 11 5 6 1022.8 1022.7 0.0
26/07:30pm 9.8 6.5 4.3 68 2.5 NE 11 13 6 7 1022.6 1022.4 0.0
26/07:00pm 10.0 8.1 5.0 71 2.3 ENE 4 9 2 5 1022.3 1022.1 0.0
26/06:30pm 12.2 10.8 3.4 55 4.0 CALM 0 6 0 3 1021.8 1021.6 0.0
26/06:00pm 12.5 10.0 3.8 55 4.0 WNW 6 6 3 3 1021.3 1021.2 0.0
26/05:30pm 12.9 10.6 4.6 57 3.9 WNW 6 7 3 4 1021.0 1020.9 0.0
26/05:00pm 15.4 13.2 5.3 51 4.9 W 6 7 3 4 1020.8 1020.7 0.0
26/04:30pm 19.8 17.7 6.5 42 6.8 WSW 7 11 4 6 1020.7 1020.5 0.0
26/04:00pm 20.8 16.9 3.6 32 8.4 WSW 13 19 7 10 1020.4 1020.2 0.0
26/03:30pm 21.3 17.4 3.5 31 8.7 WSW 13 20 7 11 1020.1 1019.9 0.0
26/03:00pm 21.3 17.9 4.1 32 8.5 WSW 11 20 6 11 1020.1 1019.9 0.0
26/02:30pm 21.5 17.7 3.9 31 8.7 WSW 13 20 7 11 1020.0 1019.8 0.0
26/02:00pm 21.3 18.4 4.4 33 8.4 W 9 20 5 11 1019.9 1019.7 0.0
26/01:30pm 20.7 18.3 5.2 36 7.8 SW 7 13 4 7 1020.0 1019.8 0.0
26/01:00pm 20.5 18.3 5.2 36 7.7 W 6 15 3 8 1020.6 1020.4 0.0
26/12:30pm 20.0 17.3 3.8 34 7.9 SW 7 11 4 6 1020.9 1020.8 0.0
26/12:00pm 19.8 17.0 3.4 33 7.9 SSE 7 15 4 8 1021.3 1021.2 0.0
26/11:30am 18.7 16.8 6.8 46 6.1 S 6 11 3 6 1021.8 1021.6 0.0
26/11:00am 17.8 16.7 7.0 49 5.5 SSE 2 7 1 4 1022.1 1021.9 0.0
26/10:30am 16.2 15.6 7.4 56 4.5 CALM 0 0 0 0 1022.3 1022.1 0.0
26/10:00am 15.0 14.3 7.0 59 4.0 CALM 0 0 0 0 1022.6 1022.4 0.0
26/09:30am 12.8 12.0 6.4 65 3.1 CALM 0 0 0 0 1022.7 1022.6 0.0
26/09:00am 10.7 10.1 7.2 79 1.7 CALM 0 0 0 0 1022.7 1022.6 0.0
26/08:30am 9.2 8.4 6.7 84 1.2 CALM 0 0 0 0 1022.4 1022.2 0.0
26/08:00am 4.9 3.7 4.7 99 0.1 CALM 0 0 0 0 1022.2 1022.0 0.0
26/07:30am 3.5 2.1 3.5 100 0.0 CALM 0 0 0 0 1021.7 1021.5 0.0
26/07:00am 1.9 0.2 1.9 100 0.0 CALM 0 0 0 0 1021.2 1021.1 0.0
26/06:30am 2.5 0.9 2.5 100 0.0 CALM 0 0 0 0 1021.1 1021.0 0.0
26/06:00am 3.5 2.1 3.3 99 0.1 CALM 0 0 0 0 1020.7 1020.5 0.0
26/05:30am 3.4 2.0 3.4 100 0.0 CALM 0 0 0 0 1020.3 1020.1 0.0
26/05:00am 3.5 2.1 3.5 100 0.0 CALM 0 0 0 0 1020.1 1019.9 0.0
26/04:30am 2.8 1.3 2.8 100 0.0 CALM 0 0 0 0 1020.2 1020.0 0.0
26/04:00am 3.9 2.6 3.9 100 0.0 CALM 0 0 0 0 1020.1 1019.9 0.0
26/03:30am 3.9 2.5 3.7 99 0.1 CALM 0 0 0 0 1020.2 1020.0 0.0
26/03:00am 4.7 3.5 4.5 99 0.1 CALM 0 0 0 0 1020.1 1019.9 0.0
26/02:30am 5.4 4.4 5.4 100 0.0 CALM 0 0 0 0 1020.1 1019.9 0.0
26/02:00am 5.3 4.2 5.1 99 0.1 CALM 0 0 0 0 1020.1 1019.9 0.0
26/01:30am 4.5 3.2 4.3 99 0.1 CALM 0 0 0 0 1020.2 1020.0 0.0
26/01:00am 5.5 4.3 4.8 95 0.3 CALM 0 0 0 0 1020.2 1020.0 0.0
26/12:30am 6.2 5.2 5.5 95 0.3 CALM 0 0 0 0 1020.2 1020.0 0.0
26/12:00am 7.2 6.4 6.6 96 0.3 CALM 0 0 0 0 1020.4 1020.2 0.0
 
Date/Time
EST
Temp
°C
App
Temp
°C
Dew
Point
°C
Rel
Hum
%
Delta-T
°C
Wind Press
QNH
hPa
Press
MSL
hPa
Rain since
9am
mm
Dir  Spd
km/h
Gust
km/h
Spd
kts
Gust
kts
25/11:30pm 7.2 6.4 6.3 94 0.4 CALM 0 0 0 0 1020.6 1020.4 0.0
25/11:00pm 6.5 5.5 5.8 95 0.3 CALM 0 0 0 0 1020.6 1020.4 0.0
25/10:30pm 6.6 5.6 5.5 93 0.5 CALM 0 0 0 0 1020.4 1020.2 0.0
25/10:00pm 7.4 6.5 5.9 90 0.7 CALM 0 6 0 3 1020.3 1020.1 0.0
25/09:30pm 9.3 7.4 6.6 83 1.3 NE 6 9 3 5 1020.3 1020.1 0.0
25/09:00pm 9.0 8.2 6.7 85 1.1 CALM 0 0 0 0 1020.4 1020.2 0.0
25/08:30pm 10.2 9.4 6.4 77 1.8 CALM 0 0 0 0 1019.8 1019.6 0.0
25/08:00pm 10.3 8.1 5.1 70 2.4 N 6 7 3 4 1019.7 1019.5 0.0
25/07:30pm 11.2 8.2 6.2 71 2.4 E 11 15 6 8 1019.5 1019.3 0.0
25/07:00pm 11.4 8.7 5.7 68 2.7 ENE 9 13 5 7 1019.2 1019.1 0.0
25/06:30pm 12.6 11.0 6.2 65 3.1 WSW 4 9 2 5 1018.8 1018.6 0.0
25/06:00pm 14.9 12.4 4.9 51 4.8 WNW 7 9 4 5 1018.3 1018.1 0.0
25/05:30pm 15.0 12.6 5.3 52 4.7 NW 7 11 4 6 1018.0 1017.8 0.0
25/05:00pm 16.4 14.0 5.4 48 5.4 WNW 7 9 4 5 1017.9 1017.7 0.0
25/04:30pm 19.4 16.9 6.5 43 6.6 WNW 9 11 5 6 1017.6 1017.4 0.0
25/04:00pm 20.6 18.5 5.6 37 7.6 NNW 6 11 3 6 1017.3 1017.1 0.0
25/03:30pm 20.9 17.5 4.1 33 8.3 NNW 11 17 6 9 1017.5 1017.3 0.0
25/03:00pm 21.2 17.9 4.6 33 8.3 NW 11 19 6 10 1017.4 1017.2 0.0
25/02:30pm 21.7 18.9 5.1 34 8.4 WNW 9 15 5 8 1017.5 1017.3 0.0
25/02:00pm 21.4 19.2 5.2 34 8.2 W 6 13 3 7 1017.6 1017.4 0.0

Latest Capital City Observations: Canberra | Sydney | Melbourne | Brisbane | Adelaide | Perth | Hobart | Darwin

Other Formats:

Comma delimited format used in spreadsheet applications
http://www.bom.gov.au/fwo/IDQ60901/IDQ60901.94555.axf

JavaScript Object Notation format (JSON) in row-major order
http://www.bom.gov.au/fwo/IDQ60901/IDQ60901.94555.json